METAR Formatted Surface Weather Observation
Issued by NWS

Home | Current Version | Previous Version | Text Only | Print | Product List | Glossary On
Versions: 1 2 3 4 5 6 7 8
000
SAUS46 KSEW 211730
MTRSMP
SPECI KSMP 211728Z AUTO VRB04KT 2SM BR OVC001 10/09 A3005 RMK AO2
VIS 1V4 T01000089



USA.gov is the U.S. government's official web portal to all federal, state and local government web resources and services.